METAR Data
IDs: Format: Raw Decoded Include TAF

Data at: 2207 UTC 01 Dec 2021

KAIA 012153Z AUTO 26013KT 10SM CLR 17/M02 A2997 RMK AO2 PK WND 27027/2058 SLP149 T01671022